Wetterstation Vordersexau
Wetterdaten: Woche 14.11.11 - 20.11.11 (KW46)
Datum Zeit Temp. A. Feuchte A. Luftdruck Regen Wind Richtung Taupunkt Windchill Windben
14.11.2011 00:00 4,9 C 85 % 1027,5 hPa 0,0 l/m 0,0 km/h O-SO 2,6 C 4,9 C 0,0 km/h
14.11.2011 01:00 4,6 C 85 % 1027,3 hPa 0,0 l/m 0,6 km/h NO 2,3 C 4,6 C 0,4 km/h
14.11.2011 02:00 4,4 C 85 % 1026,9 hPa 0,0 l/m 0,0 km/h S 2,1 C 4,4 C 0,0 km/h
14.11.2011 03:00 4,2 C 85 % 1026,5 hPa 0,0 l/m 7,1 km/h S-SO 1,9 C 3,6 C 4,0 km/h
14.11.2011 04:00 3,9 C 85 % 1026,3 hPa 0,0 l/m 0,0 km/h O-NO 1,6 C 3,9 C 0,0 km/h
14.11.2011 05:00 3,6 C 86 % 1026,2 hPa 0,0 l/m 0,0 km/h S-SO 1,5 C 3,6 C 0,0 km/h
14.11.2011 06:00 3,3 C 86 % 1025,9 hPa 0,0 l/m 1,9 km/h SO 1,2 C 3,3 C 1,1 km/h
14.11.2011 07:00 2,9 C 86 % 1025,8 hPa 0,0 l/m 7,1 km/h SO 0,8 C 2,2 C 4,0 km/h
14.11.2011 08:00 2,9 C 86 % 1025,5 hPa 0,0 l/m 22,7 km/h SO 0,8 C -7,0 C 12,6 km/h
14.11.2011 09:00 3,3 C 87 % 1025,4 hPa 0,0 l/m 0,6 km/h O-SO 1,3 C 3,3 C 0,4 km/h
14.11.2011 10:00 3,8 C 87 % 1025,0 hPa 0,0 l/m 0,0 km/h SO 1,8 C 3,8 C 0,0 km/h
14.11.2011 11:00 4,5 C 87 % 1024,4 hPa 0,0 l/m 7,8 km/h S-SO 2,5 C 3,2 C 4,3 km/h
14.11.2011 12:00 5,2 C 86 % 1023,9 hPa 0,0 l/m 0,0 km/h S-SO 3,1 C 5,2 C 0,0 km/h
14.11.2011 13:00 5,5 C 86 % 1023,0 hPa 0,0 l/m 0,0 km/h S-SO 3,3 C 5,5 C 0,0 km/h
14.11.2011 14:00 5,2 C 86 % 1022,3 hPa 0,0 l/m 0,0 km/h O-SO 3,1 C 5,2 C 0,0 km/h
14.11.2011 15:00 4,9 C 86 % 1022,2 hPa 0,0 l/m 0,0 km/h O 2,8 C 4,9 C 0,0 km/h
14.11.2011 16:00 4,6 C 87 % 1022,0 hPa 0,0 l/m 0,0 km/h SO 2,6 C 4,6 C 0,0 km/h
14.11.2011 17:00 4,3 C 87 % 1021,9 hPa 0,0 l/m 0,0 km/h SO 2,3 C 4,3 C 0,0 km/h
14.11.2011 18:00 3,9 C 87 % 1022,0 hPa 0,0 l/m 0,0 km/h S-SO 1,9 C 3,9 C 0,0 km/h
14.11.2011 19:00 3,9 C 87 % 1022,1 hPa 0,0 l/m 0,0 km/h S-SO 1,9 C 3,9 C 0,0 km/h
14.11.2011 20:00 3,8 C 86 % 1021,8 hPa 0,0 l/m 1,9 km/h S-SW 1,7 C 3,8 C 1,1 km/h
14.11.2011 21:00 3,4 C 86 % 1021,5 hPa 0,0 l/m 3,2 km/h S-SO 1,3 C 3,4 C 1,8 km/h
14.11.2011 22:00 3,3 C 86 % 1021,1 hPa 0,0 l/m 0,0 km/h O-SO 1,2 C 3,3 C 0,0 km/h
14.11.2011 23:00 3,2 C 86 % 1021,0 hPa 0,0 l/m 0,6 km/h NO 1,1 C 3,2 C 0,4 km/h
15.11.2011 00:00 2,9 C 86 % 1020,8 hPa 0,0 l/m 0,0 km/h NO 0,8 C 2,9 C 0,0 km/h
15.11.2011 01:00 2,8 C 86 % 1020,2 hPa 0,0 l/m 0,0 km/h SO 0,7 C 2,8 C 0,0 km/h
15.11.2011 02:00 2,4 C 86 % 1020,3 hPa 0,0 l/m 3,9 km/h SO 0,3 C 2,4 C 2,2 km/h
15.11.2011 03:00 2,4 C 86 % 1019,8 hPa 0,0 l/m 0,0 km/h S-SO 0,3 C 2,4 C 0,0 km/h
15.11.2011 04:00 2,4 C 86 % 1019,5 hPa 0,0 l/m 0,6 km/h SO 0,3 C 2,4 C 0,4 km/h
15.11.2011 05:00 2,2 C 86 % 1019,6 hPa 0,0 l/m 0,0 km/h S-SO 0,1 C 2,2 C 0,0 km/h
15.11.2011 06:00 2,1 C 86 % 1019,1 hPa 0,0 l/m 1,3 km/h SO 0,0 C 2,1 C 0,7 km/h
15.11.2011 07:00 1,9 C 87 % 1019,2 hPa 0,0 l/m 0,0 km/h SO -0,0 C 1,9 C 0,0 km/h
15.11.2011 08:00 1,9 C 87 % 1019,3 hPa 0,0 l/m 1,3 km/h O-SO -0,0 C 1,9 C 0,7 km/h
15.11.2011 09:00 2,3 C 87 % 1019,4 hPa 0,0 l/m 0,0 km/h S-SO 0,4 C 2,3 C 0,0 km/h
15.11.2011 10:00 2,7 C 87 % 1019,6 hPa 0,0 l/m 7,1 km/h N-NO 0,8 C 2,0 C 4,0 km/h
15.11.2011 11:00 3,3 C 87 % 1019,3 hPa 0,0 l/m 0,0 km/h W-SW 1,3 C 3,3 C 0,0 km/h
15.11.2011 12:00 3,3 C 87 % 1018,6 hPa 0,0 l/m 0,0 km/h N-NO 1,3 C 3,3 C 0,0 km/h
15.11.2011 13:00 3,5 C 86 % 1018,2 hPa 0,0 l/m 0,0 km/h O-NO 1,4 C 3,5 C 0,0 km/h
15.11.2011 14:00 3,6 C 86 % 1017,9 hPa 0,0 l/m 0,0 km/h W-NW 1,5 C 3,6 C 0,0 km/h
15.11.2011 15:00 3,3 C 86 % 1017,7 hPa 0,0 l/m 0,0 km/h W 1,2 C 3,3 C 0,0 km/h
15.11.2011 16:00 2,9 C 87 % 1017,7 hPa 0,0 l/m 0,0 km/h NW 1,0 C 2,9 C 0,0 km/h
15.11.2011 17:00 2,9 C 87 % 1018,1 hPa 0,0 l/m 0,0 km/h W-SW 1,0 C 2,9 C 0,0 km/h
15.11.2011 18:00 2,8 C 87 % 1017,9 hPa 0,0 l/m 0,0 km/h W-SW 0,9 C 2,8 C 0,0 km/h
15.11.2011 19:00 2,7 C 87 % 1018,0 hPa 0,0 l/m 2,6 km/h W 0,8 C 2,7 C 1,4 km/h
15.11.2011 20:00 2,8 C 87 % 1018,2 hPa 0,0 l/m 0,0 km/h W 0,9 C 2,8 C 0,0 km/h
15.11.2011 21:00 2,7 C 87 % 1018,0 hPa 0,0 l/m 0,0 km/h S-SW 0,8 C 2,7 C 0,0 km/h
15.11.2011 22:00 2,5 C 87 % 1018,2 hPa 0,0 l/m 0,0 km/h S-SW 0,6 C 2,5 C 0,0 km/h
15.11.2011 23:00 2,4 C 87 % 1018,4 hPa 0,0 l/m 0,0 km/h S 0,5 C 2,4 C 0,0 km/h
16.11.2011 00:00 2,4 C 87 % 1018,3 hPa 0,0 l/m 1,9 km/h O-SO 0,5 C 2,4 C 1,1 km/h
16.11.2011 01:00 2,3 C 87 % 1018,2 hPa 0,0 l/m 0,0 km/h W 0,4 C 2,3 C 0,0 km/h
16.11.2011 02:00 2,2 C 87 % 1018,4 hPa 0,0 l/m 0,0 km/h SW 0,3 C 2,2 C 0,0 km/h
16.11.2011 03:00 2,2 C 87 % 1018,5 hPa 0,0 l/m 0,0 km/h W 0,3 C 2,2 C 0,0 km/h
16.11.2011 04:00 2,1 C 87 % 1018,6 hPa 0,0 l/m 0,0 km/h S-SO 0,2 C 2,1 C 0,0 km/h
16.11.2011 05:00 2,1 C 87 % 1018,6 hPa 0,0 l/m 0,6 km/h SO 0,2 C 2,1 C 0,4 km/h
16.11.2011 06:00 1,9 C 87 % 1018,3 hPa 0,0 l/m 0,0 km/h NO -0,0 C 1,9 C 0,0 km/h
16.11.2011 07:00 1,8 C 88 % 1018,7 hPa 0,0 l/m 0,0 km/h S 0,0 C 1,8 C 0,0 km/h
16.11.2011 08:00 1,9 C 88 % 1019,2 hPa 0,0 l/m 0,0 km/h SO 0,1 C 1,9 C 0,0 km/h
16.11.2011 09:00 2,1 C 87 % 1019,4 hPa 0,0 l/m 0,0 km/h SO 0,2 C 2,1 C 0,0 km/h
16.11.2011 10:00 3,0 C 86 % 1019,5 hPa 0,0 l/m 0,0 km/h S-SO 0,9 C 3,0 C 0,0 km/h
16.11.2011 11:00 3,6 C 84 % 1019,6 hPa 0,0 l/m 6,5 km/h S 1,2 C 3,5 C 3,6 km/h
16.11.2011 12:00 6,8 C 80 % 1019,5 hPa 0,0 l/m 2,6 km/h SW 3,6 C 6,8 C 1,4 km/h
16.11.2011 13:00 8,2 C 70 % 1019,2 hPa 0,0 l/m 0,0 km/h W-NW 3,1 C 8,2 C 0,0 km/h
16.11.2011 14:00 9,6 C 65 % 1018,8 hPa 0,0 l/m 0,0 km/h W-NW 3,4 C 9,6 C 0,0 km/h
16.11.2011 15:00 9,8 C 63 % 1018,8 hPa 0,0 l/m 0,0 km/h W-NW 3,1 C 9,8 C 0,0 km/h
16.11.2011 16:00 5,5 C 73 % 1018,8 hPa 0,0 l/m 0,0 km/h NW 1,1 C 5,5 C 0,0 km/h
16.11.2011 17:00 0,3 C 82 % 1019,2 hPa 0,0 l/m 0,0 km/h NW -2,4 C 0,3 C 0,0 km/h
16.11.2011 18:00 -0,9 C 86 % 1019,7 hPa 0,0 l/m 0,0 km/h NW -2,9 C -0,9 C 0,0 km/h
16.11.2011 19:00 -1,6 C 86 % 1020,0 hPa 0,0 l/m 0,0 km/h NW -3,6 C -1,6 C 0,0 km/h
16.11.2011 20:00 -2,2 C 87 % 1020,1 hPa 0,0 l/m 0,0 km/h NW -4,1 C -2,2 C 0,0 km/h
16.11.2011 21:00 -2,4 C 87 % 1020,5 hPa 0,0 l/m 0,0 km/h NW -4,3 C -2,4 C 0,0 km/h
16.11.2011 22:00 -2,7 C 87 % 1020,7 hPa 0,0 l/m 0,0 km/h N -4,6 C -2,7 C 0,0 km/h
16.11.2011 23:00 -2,8 C 87 % 1020,8 hPa 0,0 l/m 0,0 km/h N-NO -4,7 C -2,8 C 0,0 km/h
17.11.2011 00:00 -3,1 C 87 % 1020,9 hPa 0,0 l/m 0,0 km/h N-NO -4,9 C -3,1 C 0,0 km/h
17.11.2011 01:00 -3,1 C 87 % 1020,9 hPa 0,0 l/m 0,0 km/h SO -4,9 C -3,1 C 0,0 km/h
17.11.2011 02:00 -3,3 C 87 % 1021,3 hPa 0,0 l/m 0,0 km/h O-NO -5,1 C -3,3 C 0,0 km/h
17.11.2011 03:00 -3,6 C 87 % 1021,0 hPa 0,0 l/m 0,0 km/h NO -5,4 C -3,6 C 0,0 km/h
17.11.2011 04:00 -3,4 C 87 % 1021,4 hPa 0,0 l/m 0,0 km/h NO -5,2 C -3,4 C 0,0 km/h
17.11.2011 05:00 -3,6 C 87 % 1021,6 hPa 0,0 l/m 0,0 km/h NO -5,4 C -3,6 C 0,0 km/h
17.11.2011 06:00 -3,7 C 87 % 1021,8 hPa 0,0 l/m 0,0 km/h NO -5,5 C -3,7 C 0,0 km/h
17.11.2011 07:00 -3,9 C 87 % 1022,1 hPa 0,0 l/m 0,0 km/h O-SO -5,7 C -3,9 C 0,0 km/h
17.11.2011 08:00 -2,8 C 87 % 1022,4 hPa 0,0 l/m 0,0 km/h O-SO -4,7 C -2,8 C 0,0 km/h
17.11.2011 09:00 3,5 C 85 % 1022,7 hPa 0,0 l/m 0,0 km/h O-SO 1,2 C 3,5 C 0,0 km/h
17.11.2011 10:00 6,8 C 85 % 1022,5 hPa 0,0 l/m 0,0 km/h S 4,5 C 6,8 C 0,0 km/h
17.11.2011 11:00 6,3 C 84 % 1022,5 hPa 0,0 l/m 0,0 km/h S 3,8 C 6,3 C 0,0 km/h
17.11.2011 12:00 11,4 C 80 % 1022,1 hPa 0,0 l/m 0,0 km/h W-SW 8,1 C 11,4 C 0,0 km/h
17.11.2011 13:00 13,8 C 69 % 1021,8 hPa 0,0 l/m 0,0 km/h N-NO 8,2 C 13,8 C 0,0 km/h
17.11.2011 14:00 19,0 C 50 % 1021,6 hPa 0,0 l/m 0,0 km/h N-NO 8,3 C 19,0 C 0,0 km/h
17.11.2011 15:00 13,6 C 62 % 1021,7 hPa 0,0 l/m 0,0 km/h N-NO 6,5 C 13,6 C 0,0 km/h
17.11.2011 16:00 9,8 C 73 % 1021,8 hPa 0,0 l/m 0,0 km/h NO 5,2 C 9,8 C 0,0 km/h
17.11.2011 17:00 6,9 C 80 % 1022,2 hPa 0,0 l/m 0,0 km/h O-NO 3,7 C 6,9 C 0,0 km/h
17.11.2011 18:00 6,7 C 83 % 1022,5 hPa 0,0 l/m 0,0 km/h SO 4,0 C 6,7 C 0,0 km/h
17.11.2011 19:00 6,5 C 85 % 1023,0 hPa 0,0 l/m 0,0 km/h O-SO 4,2 C 6,5 C 0,0 km/h
17.11.2011 20:00 7,2 C 85 % 1022,9 hPa 0,0 l/m 0,0 km/h O 4,9 C 7,2 C 0,0 km/h
17.11.2011 21:00 7,1 C 86 % 1023,1 hPa 0,0 l/m 0,0 km/h SO 4,9 C 7,1 C 0,0 km/h
17.11.2011 22:00 7,1 C 86 % 1023,1 hPa 0,0 l/m 0,0 km/h O-SO 4,9 C 7,1 C 0,0 km/h
17.11.2011 23:00 7,2 C 86 % 1023,0 hPa 0,0 l/m 0,0 km/h O-NO 5,0 C 7,2 C 0,0 km/h
18.11.2011 00:00 6,9 C 86 % 1022,8 hPa 0,0 l/m 0,0 km/h O-NO 4,7 C 6,9 C 0,0 km/h
18.11.2011 01:00 6,4 C 86 % 1022,6 hPa 0,0 l/m 0,0 km/h O-NO 4,2 C 6,4 C 0,0 km/h
18.11.2011 02:00 5,5 C 86 % 1022,5 hPa 0,0 l/m 0,0 km/h O-NO 3,3 C 5,5 C 0,0 km/h
18.11.2011 03:00 5,6 C 86 % 1022,6 hPa 0,0 l/m 0,0 km/h O-NO 3,4 C 5,6 C 0,0 km/h
18.11.2011 04:00 5,8 C 86 % 1022,6 hPa 0,0 l/m 0,0 km/h O-NO 3,6 C 5,8 C 0,0 km/h
18.11.2011 05:00 5,6 C 85 % 1022,6 hPa 0,0 l/m 0,0 km/h O-NO 3,3 C 5,6 C 0,0 km/h
18.11.2011 06:00 5,8 C 85 % 1022,4 hPa 0,0 l/m 0,0 km/h O-NO 3,5 C 5,8 C 0,0 km/h
18.11.2011 07:00 5,5 C 85 % 1022,4 hPa 0,0 l/m 0,0 km/h O-NO 3,2 C 5,5 C 0,0 km/h
18.11.2011 08:00 5,9 C 84 % 1022,6 hPa 0,0 l/m 0,0 km/h O-NO 3,4 C 5,9 C 0,0 km/h
18.11.2011 09:00 7,8 C 83 % 1022,6 hPa 0,0 l/m 0,0 km/h W-NW 5,1 C 7,8 C 0,0 km/h
18.11.2011 10:00 14,2 C 76 % 1022,6 hPa 0,0 l/m 0,0 km/h W-NW 10,0 C 14,2 C 0,0 km/h
18.11.2011 11:00 14,9 C 66 % 1022,2 hPa 0,0 l/m 0,0 km/h N 8,6 C 14,9 C 0,0 km/h
18.11.2011 12:00 13,3 C 68 % 1021,6 hPa 0,0 l/m 0,0 km/h W-SW 7,5 C 13,3 C 0,0 km/h
18.11.2011 13:00 13,9 C 69 % 1021,1 hPa 0,0 l/m 0,0 km/h SO 8,3 C 13,9 C 0,0 km/h
18.11.2011 14:00 16,1 C 64 % 1020,4 hPa 0,0 l/m 0,0 km/h W 9,3 C 16,1 C 0,0 km/h
18.11.2011 15:00 17,9 C 57 % 1020,2 hPa 0,0 l/m 0,0 km/h N 9,3 C 17,9 C 0,0 km/h
18.11.2011 16:00 13,3 C 66 % 1020,0 hPa 0,0 l/m 0,0 km/h N 7,1 C 13,3 C 0,0 km/h
18.11.2011 17:00 9,2 C 78 % 1020,2 hPa 0,0 l/m 0,0 km/h N 5,6 C 9,2 C 0,0 km/h
18.11.2011 18:00 7,2 C 82 % 1020,1 hPa 0,0 l/m 0,0 km/h N-NO 4,3 C 7,2 C 0,0 km/h
18.11.2011 19:00 4,9 C 85 % 1020,1 hPa 0,0 l/m 0,0 km/h NO 2,6 C 4,9 C 0,0 km/h
18.11.2011 20:00 4,3 C 86 % 1019,9 hPa 0,0 l/m 0,0 km/h NO 2,2 C 4,3 C 0,0 km/h
18.11.2011 21:00 2,3 C 86 % 1020,0 hPa 0,0 l/m 0,0 km/h NO 0,2 C 2,3 C 0,0 km/h
18.11.2011 22:00 2,4 C 86 % 1020,1 hPa 0,0 l/m 0,0 km/h NO 0,3 C 2,4 C 0,0 km/h
18.11.2011 23:00 2,8 C 85 % 1020,0 hPa 0,0 l/m 0,0 km/h NO 0,5 C 2,8 C 0,0 km/h
19.11.2011 00:00 1,3 C 86 % 1020,1 hPa 0,0 l/m 0,0 km/h NO -0,8 C 1,3 C 0,0 km/h
19.11.2011 01:00 -0,1 C 86 % 1019,9 hPa 0,0 l/m 0,0 km/h O -2,2 C -0,1 C 0,0 km/h
19.11.2011 02:00 -0,5 C 86 % 1020,1 hPa 0,0 l/m 0,0 km/h NO -2,5 C -0,5 C 0,0 km/h
19.11.2011 03:00 -1,0 C 86 % 1019,9 hPa 0,0 l/m 0,0 km/h O -3,0 C -1,0 C 0,0 km/h
19.11.2011 04:00 -1,1 C 86 % 1019,8 hPa 0,0 l/m 0,0 km/h NO -3,1 C -1,1 C 0,0 km/h
19.11.2011 05:00 -1,5 C 86 % 1019,5 hPa 0,0 l/m 0,0 km/h NO -3,5 C -1,5 C 0,0 km/h
19.11.2011 06:00 -1,0 C 86 % 1019,4 hPa 0,0 l/m 0,0 km/h NO -3,0 C -1,0 C 0,0 km/h
19.11.2011 07:00 -0,7 C 85 % 1019,4 hPa 0,0 l/m 0,0 km/h NO -2,9 C -0,7 C 0,0 km/h
19.11.2011 08:00 -0,2 C 84 % 1019,8 hPa 0,0 l/m 0,0 km/h N-NW -2,6 C -0,2 C 0,0 km/h
19.11.2011 09:00 5,8 C 84 % 1019,5 hPa 0,0 l/m 0,0 km/h W-NW 3,3 C 5,8 C 0,0 km/h
19.11.2011 10:00 10,3 C 78 % 1019,5 hPa 0,0 l/m 0,0 km/h S-SO 6,6 C 10,3 C 0,0 km/h
19.11.2011 11:00 12,4 C 72 % 1019,6 hPa 0,0 l/m 0,0 km/h W-NW 7,5 C 12,4 C 0,0 km/h
19.11.2011 12:00 12,8 C 66 % 1018,9 hPa 0,0 l/m 2,6 km/h W 6,6 C 12,8 C 1,4 km/h
19.11.2011 13:00 14,6 C 61 % 1018,1 hPa 0,0 l/m 0,0 km/h N 7,2 C 14,6 C 0,0 km/h
19.11.2011 14:00 16,3 C 54 % 1017,8 hPa 0,0 l/m 0,0 km/h W-NW 7,0 C 16,3 C 0,0 km/h
19.11.2011 15:00 16,8 C 55 % 1017,6 hPa 0,0 l/m 0,0 km/h N-NW 7,7 C 16,8 C 0,0 km/h
19.11.2011 16:00 13,1 C 62 % 1018,0 hPa 0,0 l/m 0,0 km/h NO 6,0 C 13,1 C 0,0 km/h
19.11.2011 17:00 7,1 C 78 % 1018,1 hPa 0,0 l/m 0,0 km/h SO 3,5 C 7,1 C 0,0 km/h
19.11.2011 18:00 5,2 C 83 % 1018,1 hPa 0,0 l/m 0,0 km/h O-NO 2,6 C 5,2 C 0,0 km/h
19.11.2011 19:00 3,6 C 85 % 1018,4 hPa 0,0 l/m 0,0 km/h NO 1,3 C 3,6 C 0,0 km/h
19.11.2011 20:00 3,5 C 86 % 1018,5 hPa 0,0 l/m 0,0 km/h N 1,4 C 3,5 C 0,0 km/h
19.11.2011 21:00 3,3 C 86 % 1018,9 hPa 0,0 l/m 0,0 km/h SO 1,2 C 3,3 C 0,0 km/h
19.11.2011 22:00 2,4 C 86 % 1019,5 hPa 0,0 l/m 0,0 km/h N-NO 0,3 C 2,4 C 0,0 km/h
19.11.2011 23:00 3,8 C 85 % 1019,3 hPa 0,0 l/m 0,0 km/h O 1,5 C 3,8 C 0,0 km/h
20.11.2011 00:00 2,5 C 86 % 1019,3 hPa 0,0 l/m 0,0 km/h O 0,4 C 2,5 C 0,0 km/h
20.11.2011 01:00 2,9 C 85 % 1019,6 hPa 0,0 l/m 0,0 km/h O-NO 0,6 C 2,9 C 0,0 km/h
20.11.2011 02:00 2,9 C 85 % 1019,3 hPa 0,0 l/m 0,0 km/h O-NO 0,6 C 2,9 C 0,0 km/h
20.11.2011 03:00 1,8 C 86 % 1019,3 hPa 0,0 l/m 0,0 km/h NO -0,3 C 1,8 C 0,0 km/h
20.11.2011 04:00 1,6 C 85 % 1019,0 hPa 0,0 l/m 0,0 km/h NW -0,6 C 1,6 C 0,0 km/h
20.11.2011 05:00 1,9 C 84 % 1019,4 hPa 0,0 l/m 0,0 km/h N-NO -0,5 C 1,9 C 0,0 km/h
20.11.2011 06:00 2,4 C 84 % 1019,8 hPa 0,0 l/m 0,0 km/h O-SO -0,0 C 2,4 C 0,0 km/h
20.11.2011 07:00 2,4 C 84 % 1019,5 hPa 0,0 l/m 0,0 km/h O-NO -0,0 C 2,4 C 0,0 km/h
20.11.2011 08:00 3,3 C 82 % 1019,6 hPa 0,0 l/m 0,0 km/h O-NO 0,5 C 3,3 C 0,0 km/h
20.11.2011 09:00 4,9 C 81 % 1019,9 hPa 0,0 l/m 0,0 km/h N-NW 1,9 C 4,9 C 0,0 km/h
20.11.2011 10:00 10,9 C 83 % 1020,1 hPa 0,0 l/m 0,0 km/h N-NO 8,1 C 10,9 C 0,0 km/h
20.11.2011 11:00 13,1 C 69 % 1019,8 hPa 0,0 l/m 0,0 km/h W-NW 7,5 C 13,1 C 0,0 km/h
20.11.2011 12:00 14,6 C 64 % 1018,9 hPa 0,0 l/m 0,0 km/h N-NW 7,9 C 14,6 C 0,0 km/h
20.11.2011 13:00 15,4 C 59 % 1018,5 hPa 0,0 l/m 0,0 km/h N-NW 7,4 C 15,4 C 0,0 km/h
20.11.2011 14:00 15,3 C 59 % 1018,3 hPa 0,0 l/m 0,0 km/h N-NO 7,3 C 15,3 C 0,0 km/h
20.11.2011 15:00 12,8 C 62 % 1017,9 hPa 0,0 l/m 0,0 km/h N-NW 5,7 C 12,8 C 0,0 km/h
20.11.2011 16:00 9,6 C 71 % 1018,0 hPa 0,0 l/m 0,0 km/h O-SO 4,6 C 9,6 C 0,0 km/h
20.11.2011 17:00 7,1 C 79 % 1018,0 hPa 0,0 l/m 0,0 km/h O-SO 3,7 C 7,1 C 0,0 km/h
20.11.2011 18:00 5,1 C 83 % 1017,9 hPa 0,0 l/m 0,0 km/h O-SO 2,5 C 5,1 C 0,0 km/h
20.11.2011 19:00 4,8 C 85 % 1018,2 hPa 0,0 l/m 0,0 km/h O-NO 2,5 C 4,8 C 0,0 km/h
20.11.2011 20:00 4,1 C 86 % 1018,0 hPa 0,0 l/m 0,0 km/h NO 2,0 C 4,1 C 0,0 km/h
20.11.2011 21:00 3,0 C 86 % 1018,2 hPa 0,0 l/m 0,0 km/h O 0,9 C 3,0 C 0,0 km/h
20.11.2011 22:00 2,4 C 86 % 1017,9 hPa 0,0 l/m 0,0 km/h NO 0,3 C 2,4 C 0,0 km/h
20.11.2011 23:00 1,4 C 86 % 1017,7 hPa 0,0 l/m 0,0 km/h NO -0,7 C 1,4 C 0,0 km/h
Min-Datum _ 17.11.11 17.11.11 19.11.11 - 14.11.11 - 17.11.11 14.11.11 14.11.11
_ Min-Zeit 07:30 14:30 15:30 - 00:30 - 07:30 08:30 00:30
Minimum _ -3,9 C 50 % 1017,6 hPa - 0,0 km/h - -5,7 C -7,0 C 0,0 km/h
Max-Datum _ 17.11.11 16.11.11 14.11.11 14.11.11 14.11.11 - 18.11.11 17.11.11 14.11.11
_ Max-Zeit 14:30 07:30 00:30 00:30 08:30 - 10:30 14:30 08:30
Maximum _ 19,0 C 88 % 1027,5 hPa 0,0 l/m 22,7 km/h
SO
- 10,0 C 19,0 C 12,6 km/h
SO
Durchschnitt _ 4,7 C 82 % 1020,5 hPa #0,0 l/m 0,5 km/h NO 1,8 C 4,6 C 0,3 km/h
www.sexauwetter.de